createdAt,value
2023-01-19T00:01:26.218Z,2.27
2023-01-19T00:03:52.606Z,2.23
2023-01-19T00:06:19.019Z,2.20
2023-01-19T00:08:46.001Z,2.24
2023-01-19T00:11:12.739Z,2.24
2023-01-19T00:13:39.665Z,2.24
2023-01-19T00:16:06.704Z,2.23
2023-01-19T00:18:33.433Z,2.23
2023-01-19T00:20:59.711Z,2.19
2023-01-19T00:23:25.982Z,2.18
2023-01-19T00:25:52.337Z,2.17
2023-01-19T00:28:18.962Z,2.14
2023-01-19T00:30:45.285Z,2.13
2023-01-19T00:33:14.468Z,2.16
2023-01-19T00:35:42.557Z,2.15
2023-01-19T00:38:09.148Z,2.12
2023-01-19T00:40:35.530Z,2.18
2023-01-19T00:43:03.142Z,2.25
2023-01-19T00:45:29.721Z,2.24
2023-01-19T00:47:59.001Z,2.26
2023-01-19T00:50:26.317Z,2.31
2023-01-19T00:52:53.635Z,2.36
2023-01-19T00:55:20.374Z,2.40
2023-01-19T00:57:46.667Z,2.40
2023-01-19T01:00:14.661Z,2.39
2023-01-19T01:02:41.855Z,2.38
2023-01-19T01:05:08.647Z,2.34
2023-01-19T01:07:40.584Z,2.35
2023-01-19T01:10:11.561Z,2.33
2023-01-19T01:12:38.337Z,2.35
2023-01-19T01:15:05.959Z,2.32
2023-01-19T01:17:32.377Z,2.33
2023-01-19T01:19:58.839Z,2.30
2023-01-19T01:22:25.248Z,2.28
2023-01-19T01:24:51.565Z,2.25
2023-01-19T01:27:17.989Z,2.28
2023-01-19T01:29:46.512Z,2.28
2023-01-19T01:32:16.612Z,2.17
2023-01-19T01:34:42.967Z,2.08
2023-01-19T01:37:09.247Z,2.07
2023-01-19T01:39:35.958Z,1.97
2023-01-19T01:42:02.807Z,1.98
2023-01-19T01:44:49.918Z,1.89
2023-01-19T01:47:24.141Z,1.75
2023-01-19T01:49:54.368Z,1.84
2023-01-19T01:52:21.977Z,1.90
2023-01-19T01:54:48.393Z,1.97
2023-01-19T01:57:14.780Z,1.95
2023-01-19T01:59:43.276Z,2.02
2023-01-19T02:02:31.317Z,2.09
2023-01-19T02:05:00.500Z,2.16
2023-01-19T02:07:53.669Z,2.16
2023-01-19T02:10:38.459Z,2.16
2023-01-19T02:13:23.043Z,2.25
2023-01-19T02:15:54.223Z,2.35
2023-01-19T02:18:21.898Z,2.44
2023-01-19T02:20:58.390Z,2.53
2023-01-19T02:23:39.583Z,2.58
2023-01-19T02:26:09.330Z,2.68
2023-01-19T02:28:37.340Z,2.77
2023-01-19T02:31:03.796Z,2.55
2023-01-19T02:33:30.330Z,2.81
2023-01-19T02:35:56.736Z,2.74
2023-01-19T02:38:24.890Z,2.71
2023-01-19T02:40:51.903Z,2.69
2023-01-19T02:43:19.230Z,2.65
2023-01-19T02:45:46.665Z,2.59
2023-01-19T02:48:13.164Z,2.63
2023-01-19T02:50:41.283Z,2.57
2023-01-19T02:53:20.541Z,2.55
2023-01-19T02:55:52.670Z,2.55
2023-01-19T02:58:27.334Z,2.48
2023-01-19T03:01:02.839Z,2.48
2023-01-19T03:03:36.158Z,2.33
2023-01-19T03:06:08.730Z,2.43
2023-01-19T03:08:50.101Z,2.48
2023-01-19T03:11:16.520Z,2.53
2023-01-19T03:13:49.975Z,2.52
2023-01-19T03:16:16.659Z,2.52
2023-01-19T03:18:45.262Z,2.50
2023-01-19T03:21:13.230Z,2.50
2023-01-19T03:23:41.335Z,2.48
2023-01-19T03:26:10.389Z,2.50
2023-01-19T03:28:38.940Z,2.52
2023-01-19T03:31:10.568Z,2.49
2023-01-19T03:33:38.910Z,2.49
2023-01-19T03:36:08.641Z,2.44
2023-01-19T03:38:37.242Z,2.47
2023-01-19T03:41:06.870Z,2.49
2023-01-19T03:43:35.052Z,2.50
2023-01-19T03:46:02.753Z,2.50
2023-01-19T03:48:29.122Z,2.53
2023-01-19T03:50:55.505Z,2.57
2023-01-19T03:53:25.043Z,2.64
2023-01-19T03:55:51.558Z,2.68
2023-01-19T03:58:17.859Z,2.73
2023-01-19T04:00:44.186Z,2.78
2023-01-19T04:03:13.078Z,2.83
2023-01-19T04:05:39.632Z,2.81
2023-01-19T04:08:06.092Z,2.86
2023-01-19T04:10:32.374Z,2.87
2023-01-19T04:12:59.608Z,2.87
2023-01-19T04:15:26.773Z,2.79
2023-01-19T04:17:53.263Z,2.86
2023-01-19T04:20:20.118Z,2.91
2023-01-19T04:22:46.417Z,2.86
2023-01-19T04:25:12.753Z,2.85
2023-01-19T04:27:38.997Z,2.83
2023-01-19T04:30:05.629Z,2.86
2023-01-19T04:32:32.497Z,2.89
2023-01-19T04:34:59.197Z,2.88
2023-01-19T04:37:25.532Z,2.88
2023-01-19T04:39:51.848Z,2.84
2023-01-19T04:42:18.116Z,2.91
2023-01-19T04:44:44.432Z,2.93
2023-01-19T04:47:11.294Z,2.97
2023-01-19T04:49:37.736Z,2.98
2023-01-19T04:52:07.421Z,3.00
2023-01-19T04:54:33.716Z,3.04
2023-01-19T04:57:00.071Z,3.05
2023-01-19T04:59:26.438Z,3.09
2023-01-19T05:01:53.020Z,3.21
2023-01-19T05:04:19.367Z,3.22
2023-01-19T05:06:45.673Z,3.22
2023-01-19T05:09:14.134Z,3.26
2023-01-19T05:11:40.615Z,3.28
2023-01-19T05:14:06.990Z,3.29
2023-01-19T05:16:34.607Z,3.27
2023-01-19T05:19:00.950Z,3.28
2023-01-19T05:21:27.247Z,3.28
2023-01-19T05:23:53.557Z,3.32
2023-01-19T05:26:19.882Z,3.32
2023-01-19T05:28:46.169Z,3.31
2023-01-19T05:31:12.539Z,3.31
2023-01-19T05:33:38.890Z,3.32
2023-01-19T05:36:05.477Z,3.34
2023-01-19T05:38:35.858Z,3.35
2023-01-19T05:41:02.687Z,3.33
2023-01-19T05:43:29.030Z,3.34
2023-01-19T05:45:55.461Z,3.35
2023-01-19T05:48:21.734Z,3.37
2023-01-19T05:50:49.501Z,3.30
2023-01-19T05:53:16.903Z,3.28
2023-01-19T05:55:43.353Z,3.35
2023-01-19T05:58:09.607Z,3.35
2023-01-19T06:00:35.944Z,3.31
2023-01-19T06:03:02.846Z,3.27
2023-01-19T06:05:29.700Z,3.23
2023-01-19T06:07:56.873Z,3.22
2023-01-19T06:10:23.193Z,3.19
2023-01-19T06:12:49.635Z,3.13
2023-01-19T06:15:16.133Z,3.07
2023-01-19T06:17:42.926Z,3.02
2023-01-19T06:20:09.611Z,3.03
2023-01-19T06:22:35.929Z,2.97
2023-01-19T06:25:02.581Z,2.95
2023-01-19T06:27:28.833Z,2.90
2023-01-19T06:29:55.101Z,2.81
2023-01-19T06:32:21.389Z,2.80
2023-01-19T06:34:47.713Z,2.73
2023-01-19T06:37:16.169Z,2.68
2023-01-19T06:39:42.573Z,2.70
2023-01-19T06:42:08.967Z,2.66
2023-01-19T06:44:35.257Z,2.66
2023-01-19T06:47:14.876Z,2.74
2023-01-19T06:49:42.208Z,2.76
2023-01-19T06:52:09.837Z,2.81
2023-01-19T06:54:36.086Z,2.78
2023-01-19T06:57:02.849Z,2.83
2023-01-19T06:59:29.807Z,2.84
2023-01-19T07:01:56.945Z,2.81
2023-01-19T07:04:23.391Z,2.88
2023-01-19T07:06:49.936Z,2.87
2023-01-19T07:09:17.086Z,2.85
2023-01-19T07:11:43.438Z,2.84
2023-01-19T07:14:09.839Z,2.82
2023-01-19T07:16:36.226Z,2.83
2023-01-19T07:19:02.595Z,2.83
2023-01-19T07:21:29.372Z,2.90
2023-01-19T07:23:56.121Z,2.87
2023-01-19T07:26:24.922Z,2.88
2023-01-19T07:28:52.061Z,2.87
2023-01-19T07:31:19.100Z,2.90
2023-01-19T07:33:45.777Z,3.04
2023-01-19T07:36:12.559Z,3.35
2023-01-19T07:38:38.918Z,3.26
2023-01-19T07:41:06.527Z,3.14
2023-01-19T07:43:33.380Z,3.08
2023-01-19T07:46:00.750Z,3.08
2023-01-19T07:48:27.271Z,3.08
2023-01-19T07:50:53.648Z,3.06
2023-01-19T07:53:19.984Z,3.10
2023-01-19T07:55:46.346Z,3.08
2023-01-19T07:58:12.660Z,3.07
2023-01-19T08:00:39.572Z,3.03
2023-01-19T08:03:05.913Z,3.05
2023-01-19T08:05:33.067Z,3.05
2023-01-19T08:08:00.353Z,3.12
2023-01-19T08:10:27.611Z,3.11
2023-01-19T08:12:54.534Z,3.12
2023-01-19T08:15:23.962Z,3.17
2023-01-19T08:18:00.825Z,3.15
2023-01-19T08:20:28.165Z,3.17
2023-01-19T08:22:59.806Z,3.17
2023-01-19T08:25:31.674Z,3.21
2023-01-19T08:27:58.068Z,3.21
2023-01-19T08:30:26.646Z,3.26
2023-01-19T08:32:54.344Z,3.28
2023-01-19T08:35:20.726Z,3.34
2023-01-19T08:37:47.137Z,3.36
2023-01-19T08:40:13.688Z,3.35
2023-01-19T08:42:40.035Z,3.42
2023-01-19T08:45:06.757Z,3.38
2023-01-19T08:47:33.171Z,2.98
2023-01-19T08:49:59.560Z,3.36
2023-01-19T08:52:26.623Z,3.40
2023-01-19T08:54:53.055Z,3.46
2023-01-19T08:57:19.384Z,3.46
2023-01-19T08:59:47.340Z,3.50
2023-01-19T09:02:13.779Z,3.49
2023-01-19T09:04:40.144Z,3.49
2023-01-19T09:09:39.610Z,3.64
2023-01-19T09:12:06.032Z,3.66
2023-01-19T09:14:32.478Z,3.67
2023-01-19T09:16:59.160Z,3.67
2023-01-19T09:19:25.554Z,3.72
2023-01-19T09:21:53.263Z,3.74
2023-01-19T09:24:19.588Z,3.74
2023-01-19T09:26:45.953Z,3.78
2023-01-19T09:29:12.254Z,3.79
2023-01-19T09:31:40.151Z,3.85
2023-01-19T09:34:06.575Z,4.06
2023-01-19T09:36:32.935Z,4.30
2023-01-19T09:38:59.416Z,4.22
2023-01-19T09:41:26.269Z,4.17
2023-01-19T09:43:59.819Z,4.13
2023-01-19T09:46:39.609Z,4.08
2023-01-19T09:49:13.503Z,4.11
2023-01-19T09:51:41.585Z,4.07
2023-01-19T09:54:13.573Z,4.02
2023-01-19T09:56:40.251Z,4.08
2023-01-19T09:59:25.408Z,4.10
2023-01-19T10:02:18.644Z,4.12
2023-01-19T10:04:57.610Z,4.17
2023-01-19T10:07:34.521Z,4.14
2023-01-19T10:10:20.260Z,4.11
2023-01-19T10:13:01.379Z,4.06
2023-01-19T10:15:32.811Z,4.01
2023-01-19T10:18:11.770Z,3.94
2023-01-19T10:20:41.529Z,3.92
2023-01-19T10:23:34.488Z,3.94
2023-01-19T10:26:04.362Z,3.93
2023-01-19T10:28:30.872Z,3.95
2023-01-19T10:30:57.375Z,3.90
2023-01-19T10:33:24.008Z,3.95
2023-01-19T10:35:50.408Z,3.99
2023-01-19T10:38:22.011Z,4.03
2023-01-19T10:40:59.612Z,4.03
2023-01-19T10:43:35.414Z,4.10
2023-01-19T10:46:05.064Z,4.16
2023-01-19T10:48:40.015Z,4.17
2023-01-19T10:51:07.104Z,4.27
2023-01-19T10:53:33.493Z,4.28
2023-01-19T10:56:18.703Z,4.30
2023-01-19T10:58:45.203Z,4.35
2023-01-19T11:01:31.294Z,4.37
2023-01-19T11:04:05.592Z,4.49
2023-01-19T11:06:33.914Z,4.46
2023-01-19T11:09:16.424Z,4.48
2023-01-19T11:11:52.697Z,4.49
2023-01-19T11:14:20.809Z,4.51
2023-01-19T11:16:48.973Z,4.46
2023-01-19T11:19:18.769Z,4.47
2023-01-19T11:21:45.136Z,4.53
2023-01-19T11:24:14.658Z,4.58
2023-01-19T11:26:42.708Z,4.59
2023-01-19T11:29:22.854Z,4.58
2023-01-19T11:31:49.799Z,4.58
2023-01-19T11:34:30.424Z,4.66
2023-01-19T11:36:58.254Z,4.77
2023-01-19T11:39:26.489Z,4.72
2023-01-19T11:41:55.398Z,4.67
2023-01-19T11:44:27.794Z,4.61
2023-01-19T11:46:56.493Z,4.58
2023-01-19T11:49:38.437Z,4.59
2023-01-19T11:52:06.523Z,4.66
2023-01-19T11:54:40.992Z,4.63
2023-01-19T11:57:12.308Z,4.62
2023-01-19T11:59:38.734Z,4.60
2023-01-19T12:02:12.765Z,4.64
2023-01-19T12:04:40.257Z,4.64
2023-01-19T12:07:10.324Z,4.60
2023-01-19T12:09:42.695Z,4.67
2023-01-19T12:12:15.177Z,4.64
2023-01-19T12:14:47.576Z,4.68
2023-01-19T12:17:16.659Z,4.80
2023-01-19T12:19:55.968Z,4.76
2023-01-19T12:22:23.706Z,4.80
2023-01-19T12:24:55.409Z,4.78
2023-01-19T12:27:26.675Z,4.73
2023-01-19T12:29:54.441Z,4.78
2023-01-19T12:32:32.252Z,4.84
2023-01-19T12:34:58.674Z,4.82
2023-01-19T12:37:31.058Z,4.81
2023-01-19T12:40:02.392Z,4.77
2023-01-19T12:42:29.306Z,4.79
2023-01-19T12:45:17.020Z,4.73
2023-01-19T12:47:56.090Z,4.73
2023-01-19T12:50:25.578Z,4.78
2023-01-19T12:53:02.099Z,4.47
2023-01-19T12:55:31.055Z,4.89
2023-01-19T12:58:16.975Z,4.92
2023-01-19T13:00:44.534Z,4.86
2023-01-19T13:03:16.640Z,4.96
2023-01-19T13:05:43.037Z,4.93
2023-01-19T13:08:09.460Z,4.86
2023-01-19T13:11:12.974Z,4.86
2023-01-19T13:13:40.887Z,4.91
2023-01-19T13:16:19.907Z,4.96
2023-01-19T13:18:47.814Z,5.05
2023-01-19T13:21:31.841Z,5.08
2023-01-19T13:23:59.512Z,5.23
2023-01-19T13:26:27.965Z,5.34
2023-01-19T13:29:02.939Z,5.40
2023-01-19T13:31:35.271Z,5.36
2023-01-19T13:34:02.141Z,5.44
2023-01-19T13:36:33.363Z,5.46
2023-01-19T13:39:07.592Z,5.42
2023-01-19T13:41:39.575Z,5.32
2023-01-19T13:44:20.900Z,5.28
2023-01-19T13:46:47.857Z,5.24
2023-01-19T13:49:21.137Z,5.27
2023-01-19T13:52:03.737Z,5.26
2023-01-19T13:54:30.045Z,5.34
2023-01-19T13:56:56.527Z,5.38
2023-01-19T13:59:22.873Z,5.32
2023-01-19T14:01:51.020Z,5.34
2023-01-19T14:04:26.607Z,5.29
2023-01-19T14:06:55.585Z,5.27
2023-01-19T14:09:22.499Z,5.26
2023-01-19T14:12:07.834Z,5.34
2023-01-19T14:14:34.244Z,5.30
2023-01-19T14:17:00.737Z,5.21
2023-01-19T14:19:27.221Z,5.20
2023-01-19T14:22:04.183Z,5.18
2023-01-19T14:24:32.963Z,5.21
2023-01-19T14:27:08.432Z,5.18
2023-01-19T14:29:35.959Z,5.11
2023-01-19T14:32:16.425Z,5.11
2023-01-19T14:34:42.848Z,5.11
2023-01-19T14:37:20.244Z,5.10
2023-01-19T14:40:08.053Z,5.09
2023-01-19T14:42:35.896Z,5.07
2023-01-19T14:45:04.327Z,5.02
2023-01-19T14:47:33.589Z,4.99
2023-01-19T14:50:02.444Z,4.98
2023-01-19T14:52:34.542Z,4.90
2023-01-19T14:55:02.985Z,4.99
2023-01-19T14:57:29.363Z,5.00
2023-01-19T14:59:55.786Z,5.03
2023-01-19T15:02:23.036Z,5.00
2023-01-19T15:04:51.344Z,4.95
2023-01-19T15:07:19.240Z,5.01
2023-01-19T15:09:46.933Z,5.03
2023-01-19T15:12:17.170Z,5.09
2023-01-19T15:14:43.798Z,5.05
2023-01-19T15:17:14.648Z,5.05
2023-01-19T15:19:40.942Z,5.05
2023-01-19T15:22:11.252Z,5.00
2023-01-19T15:24:39.505Z,5.02
2023-01-19T15:27:05.842Z,5.04
2023-01-19T15:29:32.364Z,5.07
2023-01-19T15:31:58.745Z,5.01
2023-01-19T15:34:25.014Z,4.91
2023-01-19T15:36:51.375Z,4.87
2023-01-19T15:39:18.005Z,4.87
2023-01-19T15:41:44.440Z,4.91
2023-01-19T15:44:11.030Z,4.93
2023-01-19T15:46:38.424Z,4.93
2023-01-19T15:49:07.721Z,4.93
2023-01-19T15:51:34.137Z,4.90
2023-01-19T15:54:00.570Z,4.90
2023-01-19T15:56:28.910Z,4.86
2023-01-19T15:58:55.872Z,4.85
2023-01-19T16:01:23.823Z,4.80
2023-01-19T16:03:50.429Z,4.80
2023-01-19T16:06:17.790Z,4.81
2023-01-19T16:08:44.678Z,4.76
2023-01-19T16:11:13.178Z,4.78
2023-01-19T16:13:39.848Z,4.71
2023-01-19T16:16:07.939Z,4.66
2023-01-19T16:18:34.289Z,4.65
2023-01-19T16:21:01.175Z,4.66
2023-01-19T16:23:27.540Z,4.67
2023-01-19T16:25:58.371Z,4.65
2023-01-19T16:28:25.539Z,4.66
2023-01-19T16:30:52.588Z,4.63
2023-01-19T16:33:19.364Z,4.69
2023-01-19T16:35:45.709Z,4.67
2023-01-19T16:38:12.083Z,4.69
2023-01-19T16:40:38.643Z,4.70
2023-01-19T16:43:04.962Z,4.71
2023-01-19T16:45:31.404Z,4.70
2023-01-19T16:47:57.796Z,4.78
2023-01-19T16:50:24.105Z,4.81
2023-01-19T16:52:50.624Z,4.75
2023-01-19T16:55:17.026Z,4.79
2023-01-19T16:57:43.310Z,4.90
2023-01-19T17:00:10.477Z,4.89
2023-01-19T17:02:37.548Z,4.89
2023-01-19T17:05:04.249Z,4.89
2023-01-19T17:07:30.905Z,4.81
2023-01-19T17:09:57.455Z,4.82
2023-01-19T17:12:23.785Z,4.83
2023-01-19T17:14:50.301Z,4.84
2023-01-19T17:17:16.692Z,4.81
2023-01-19T17:19:44.998Z,4.76
2023-01-19T17:22:12.819Z,4.77
2023-01-19T17:24:43.160Z,4.79
2023-01-19T17:27:09.868Z,4.78
2023-01-19T17:29:36.320Z,4.81
2023-01-19T17:32:02.812Z,4.77
2023-01-19T17:34:29.109Z,4.77
2023-01-19T17:37:02.581Z,4.78
2023-01-19T17:39:28.977Z,4.80
2023-01-19T17:41:55.300Z,4.80
2023-01-19T17:44:21.630Z,4.70
2023-01-19T17:46:48.444Z,4.72
2023-01-19T17:49:14.849Z,4.73
2023-01-19T17:51:41.174Z,4.72
2023-01-19T17:54:07.535Z,4.62
2023-01-19T17:56:36.585Z,4.60
2023-01-19T17:59:04.230Z,4.67
2023-01-19T18:01:31.541Z,4.69
2023-01-19T18:03:58.388Z,4.69
2023-01-19T18:06:24.902Z,4.68
2023-01-19T18:08:51.276Z,4.62
2023-01-19T18:11:19.114Z,4.59
2023-01-19T18:13:46.152Z,4.58
2023-01-19T18:16:14.781Z,4.54
2023-01-19T18:18:41.189Z,4.58
2023-01-19T18:21:09.144Z,4.56
2023-01-19T18:23:36.078Z,4.59
2023-01-19T18:26:07.064Z,4.62
2023-01-19T18:28:33.715Z,4.59
2023-01-19T18:31:00.459Z,4.57
2023-01-19T18:33:27.707Z,4.55
2023-01-19T18:35:54.328Z,4.48
2023-01-19T18:38:20.721Z,4.41
2023-01-19T18:40:47.038Z,4.30
2023-01-19T18:43:13.849Z,4.34
2023-01-19T18:45:41.921Z,4.51
2023-01-19T18:48:09.273Z,4.55
2023-01-19T18:50:37.104Z,4.47
2023-01-19T18:53:03.491Z,4.38
2023-01-19T18:55:29.987Z,4.32
2023-01-19T18:57:56.325Z,4.34
2023-01-19T19:00:22.915Z,4.37
2023-01-19T19:02:49.218Z,4.33
2023-01-19T19:05:15.618Z,4.28
2023-01-19T19:07:42.057Z,4.31
2023-01-19T19:10:09.252Z,4.31
2023-01-19T19:12:35.639Z,4.34
2023-01-19T19:15:02.415Z,4.29
2023-01-19T19:17:29.768Z,4.25
2023-01-19T19:19:56.439Z,4.39
2023-01-19T19:22:25.441Z,4.42
2023-01-19T19:24:52.222Z,4.36
2023-01-19T19:27:18.741Z,4.31
2023-01-19T19:29:48.661Z,4.22
2023-01-19T19:32:28.204Z,4.24
2023-01-19T19:34:56.511Z,4.15
2023-01-19T19:37:23.123Z,4.20
2023-01-19T19:39:49.511Z,4.31
2023-01-19T19:42:15.863Z,4.36
2023-01-19T19:44:42.403Z,4.33
2023-01-19T19:47:08.755Z,4.32
2023-01-19T19:49:35.144Z,4.30
2023-01-19T19:52:01.640Z,4.27
2023-01-19T19:54:28.108Z,4.25
2023-01-19T19:56:54.477Z,4.13
2023-01-19T19:59:20.802Z,4.15
2023-01-19T20:01:49.659Z,4.04
2023-01-19T20:04:19.944Z,3.94
2023-01-19T20:06:47.691Z,3.92
2023-01-19T20:09:14.853Z,3.98
2023-01-19T20:11:42.154Z,3.90
2023-01-19T20:14:10.496Z,3.86
2023-01-19T20:16:36.961Z,3.81
2023-01-19T20:19:03.562Z,3.81
2023-01-19T20:21:31.374Z,3.79
2023-01-19T20:24:01.030Z,3.81
2023-01-19T20:26:28.997Z,3.75
2023-01-19T20:28:57.172Z,3.85
2023-01-19T20:31:25.325Z,3.82
2023-01-19T20:33:52.393Z,3.84
2023-01-19T20:36:19.129Z,3.88
2023-01-19T20:38:45.405Z,3.77
2023-01-19T20:41:12.746Z,3.78
2023-01-19T20:43:39.324Z,3.68
2023-01-19T20:46:07.887Z,3.64
2023-01-19T20:48:34.351Z,3.68
2023-01-19T20:51:01.903Z,3.78
2023-01-19T20:53:28.681Z,3.74
2023-01-19T20:55:55.227Z,3.72
2023-01-19T20:58:22.299Z,3.68
2023-01-19T21:00:48.792Z,3.61
2023-01-19T21:03:15.213Z,3.64
2023-01-19T21:05:41.595Z,3.57
2023-01-19T21:08:08.841Z,3.59
2023-01-19T21:10:35.130Z,3.62
2023-01-19T21:13:01.469Z,3.64
2023-01-19T21:15:27.937Z,3.62
2023-01-19T21:17:54.299Z,3.62
2023-01-19T21:20:20.695Z,3.58
2023-01-19T21:22:47.052Z,3.62
2023-01-19T21:25:13.783Z,3.64
2023-01-19T21:31:22.629Z,3.55
2023-01-19T21:33:53.204Z,3.55
2023-01-19T21:36:21.015Z,3.58
2023-01-19T21:38:47.350Z,3.54
2023-01-19T21:41:16.085Z,3.63
2023-01-19T21:43:43.140Z,3.56
2023-01-19T21:46:09.716Z,3.57
2023-01-19T21:48:36.172Z,3.60
2023-01-19T21:51:02.537Z,3.63
2023-01-19T21:53:28.955Z,3.68
2023-01-19T21:55:55.303Z,3.66
2023-01-19T21:58:23.100Z,3.42
2023-01-19T22:00:49.452Z,3.57
2023-01-19T22:03:16.230Z,3.58
2023-01-19T22:05:42.638Z,3.57
2023-01-19T22:08:09.530Z,3.59
2023-01-19T22:10:37.193Z,3.59
2023-01-19T22:13:03.526Z,3.53
2023-01-19T22:15:31.230Z,3.59
2023-01-19T22:17:57.577Z,3.59
2023-01-19T22:20:23.909Z,3.55
2023-01-19T22:22:50.209Z,3.54
2023-01-19T22:25:16.516Z,3.50
2023-01-19T22:27:43.127Z,3.51
2023-01-19T22:30:09.724Z,3.52
2023-01-19T22:32:36.068Z,3.55
2023-01-19T22:35:02.453Z,3.52
2023-01-19T22:37:28.840Z,3.45
2023-01-19T22:39:55.192Z,3.40
2023-01-19T22:42:21.575Z,3.24
2023-01-19T22:44:48.106Z,3.49
2023-01-19T22:47:14.401Z,3.50
2023-01-19T22:49:40.806Z,3.44
2023-01-19T22:52:07.499Z,3.46
2023-01-19T22:54:33.899Z,3.45
2023-01-19T22:57:00.369Z,3.41
2023-01-19T22:59:26.839Z,3.43
2023-01-19T23:01:53.475Z,3.39
2023-01-19T23:04:19.912Z,3.40
2023-01-19T23:06:50.282Z,3.34
2023-01-19T23:09:17.055Z,3.41
2023-01-19T23:11:44.805Z,3.33
2023-01-19T23:14:13.614Z,3.38
2023-01-19T23:16:40.086Z,3.34
2023-01-19T23:19:06.425Z,3.37
2023-01-19T23:21:33.076Z,3.37
2023-01-19T23:24:00.920Z,3.41
2023-01-19T23:26:28.726Z,3.44
2023-01-19T23:28:56.707Z,3.13
2023-01-19T23:31:23.293Z,3.42
2023-01-19T23:33:54.049Z,3.42
2023-01-19T23:36:21.269Z,3.38
2023-01-19T23:38:48.834Z,3.37
2023-01-19T23:41:15.181Z,3.34
2023-01-19T23:43:41.563Z,3.32
2023-01-19T23:46:09.123Z,3.36
2023-01-19T23:48:35.690Z,3.28
2023-01-19T23:51:05.558Z,3.27
2023-01-19T23:53:31.888Z,3.33
2023-01-19T23:55:58.522Z,3.27
2023-01-19T23:58:25.354Z,3.28
